Time;durP1;ratioP1;P1;durP2;ratioP2;P2;SDS_P1;SDS_P2;PMS_P1;PMS_P2;Temp;Humidity;BMP_temperature;BMP_pressure;BME280_temperature;BME280_humidity;BME280_pressure;Samples;Min_cycle;Max_cycle;Signal;HPM_P1;HPM_P2
2023/04/28 04:21:42;;;;;;;19.00;10.00;;;;;;;2.21;100.00;100905.63;5555851;31;1479077;-88
2023/04/28 04:24:53;;;;;;;19.85;9.50;;;;;;;2.24;100.00;100916.06;5582832;31;34060;-89
2023/04/28 04:28:02;;;;;;;15.35;9.40;;;;;;;2.35;100.00;100914.25;5583064;32;33813;-88
2023/04/28 04:31:10;;;;;;;19.30;10.70;;;;;;;2.47;100.00;100915.03;5576942;31;33789;-89
2023/04/28 04:34:17;;;;;;;16.12;10.07;;;;;;;2.67;100.00;100923.59;5562388;32;33136;-87
2023/04/28 04:37:25;;;;;;;17.23;9.88;;;;;;;2.90;100.00;100917.31;5563746;32;33381;-87
2023/04/28 04:40:32;;;;;;;14.68;9.18;;;;;;;3.09;100.00;100915.37;5579537;32;33862;-87
2023/04/28 04:43:40;;;;;;;13.30;9.10;;;;;;;3.29;100.00;100921.28;5570490;32;34103;-87
2023/04/28 04:46:51;;;;;;;14.63;9.20;;;;;;;3.50;100.00;100922.81;5582767;32;34708;-87
2023/04/28 04:50:01;;;;;;;13.93;8.25;;;;;;;3.66;100.00;100913.00;5583061;31;33576;-87
2023/04/28 04:53:11;;;;;;;14.15;8.85;;;;;;;3.91;100.00;100918.81;5582999;31;34354;-88
2023/04/28 04:56:25;;;;;;;11.48;7.93;;;;;;;4.07;100.00;100917.72;5586620;32;34692;-87
2023/04/28 04:59:33;;;;;;;14.57;9.32;;;;;;;4.27;100.00;100926.19;5585395;31;34422;-87
2023/04/28 05:02:42;;;;;;;13.57;8.18;;;;;;;4.48;100.00;100923.25;5582743;32;34275;-88
2023/04/28 05:05:51;;;;;;;13.35;8.10;;;;;;;4.83;100.00;100914.78;5581832;31;33440;-86
2023/04/28 05:09:03;;;;;;;17.17;8.60;;;;;;;5.26;100.00;100913.16;5582887;31;34623;-87
2023/04/28 05:12:09;;;;;;;13.15;8.20;;;;;;;5.48;100.00;100920.63;5573368;32;35824;-92
2023/04/28 05:15:16;;;;;;;10.98;7.45;;;;;;;5.74;100.00;100924.50;5562956;32;34338;-89
2023/04/28 05:18:24;;;;;;;10.88;8.55;;;;;;;5.87;99.99;100924.22;5564330;32;34469;-87
2023/04/28 05:21:33;;;;;;;12.98;8.60;;;;;;;6.03;97.91;100924.84;5562581;32;34354;-88
2023/04/28 05:24:41;;;;;;;10.50;7.80;;;;;;;6.83;93.16;100927.34;5565018;32;33458;-87
2023/04/28 05:27:50;;;;;;;12.13;7.70;;;;;;;7.86;86.96;100928.97;5568702;32;33859;-88
2023/04/28 05:30:58;;;;;;;12.52;7.72;;;;;;;8.90;83.57;100936.31;5559681;32;33892;-88
2023/04/28 05:34:06;;;;;;;14.07;8.52;;;;;;;9.41;77.97;100934.56;5550379;32;33541;-88
2023/04/28 05:37:12;;;;;;;10.18;7.93;;;;;;;9.64;76.06;100930.22;5555450;32;34528;-88
2023/04/28 05:40:21;;;;;;;10.00;7.75;;;;;;;9.84;76.32;100929.50;5558017;32;35121;-88
2023/04/28 05:43:30;;;;;;;12.45;7.70;;;;;;;10.40;75.49;100928.25;5551124;32;34330;-87
2023/04/28 05:46:40;;;;;;;13.10;7.75;;;;;;;10.69;71.29;100931.53;5550420;32;33719;-88
2023/04/28 05:49:46;;;;;;;16.35;7.80;;;;;;;11.37;66.94;100930.44;5556534;32;33399;-88
2023/04/28 05:52:53;;;;;;;10.80;6.90;;;;;;;11.50;63.02;100934.28;5576788;31;33923;-89
2023/04/28 05:55:57;;;;;;;11.93;8.73;;;;;;;12.11;60.55;100931.53;5598657;26;33659;-90
2023/04/28 05:59:17;;;;;;;15.35;8.68;;;;;;;12.10;55.27;100941.34;5629591;26;33341;-89
2023/04/28 06:02:24;;;;;;;12.30;7.97;;;;;;;12.36;55.48;100933.03;5557298;32;33180;-89
2023/04/28 06:05:32;;;;;;;10.75;8.40;;;;;;;12.18;54.89;100934.78;5571176;26;33536;-88
2023/04/28 06:08:37;;;;;;;13.77;7.95;;;;;;;12.04;53.38;100938.09;5564313;32;33562;-88
2023/04/28 06:11:43;;;;;;;15.65;7.72;;;;;;;12.18;53.63;100937.44;5552797;32;34011;-88
2023/04/28 06:14:52;;;;;;;11.93;6.72;;;;;;;12.30;55.46;100939.53;5563344;32;33904;-87
2023/04/28 06:17:58;;;;;;;11.63;7.18;;;;;;;12.49;56.86;100930.66;5554473;32;34477;-92
2023/04/28 06:21:04;;;;;;;11.27;7.72;;;;;;;13.37;53.07;100941.31;5558626;32;34508;-88
2023/04/28 06:24:09;;;;;;;11.38;7.05;;;;;;;13.69;51.05;100938.75;5556421;32;33740;-88
2023/04/28 06:27:15;;;;;;;10.65;7.30;;;;;;;13.50;50.54;100941.56;5557755;32;33668;-88
2023/04/28 06:30:23;;;;;;;13.43;7.78;;;;;;;14.26;48.37;100941.94;5549148;32;33492;-84
2023/04/28 06:33:28;;;;;;;11.38;7.70;;;;;;;13.81;49.05;100944.38;5567301;32;33693;-84
2023/04/28 06:36:33;;;;;;;12.70;8.38;;;;;;;13.63;50.70;100947.09;5552345;32;33497;-84
2023/04/28 06:39:40;;;;;;;18.30;8.38;;;;;;;13.42;50.54;100954.44;5552777;32;33821;-85
2023/04/28 06:42:45;;;;;;;13.82;7.85;;;;;;;12.99;50.32;100946.84;5552485;32;33576;-84
2023/04/28 06:45:54;;;;;;;11.88;8.32;;;;;;;13.50;50.11;100943.38;5558660;32;33842;-87
2023/04/28 06:49:02;;;;;;;16.45;8.52;;;;;;;13.39;49.80;100947.44;5554858;32;34138;-85
2023/04/28 06:52:09;;;;;;;13.73;8.73;;;;;;;13.45;50.22;100938.25;5553269;32;33884;-85
2023/04/28 06:55:16;;;;;;;15.48;8.52;;;;;;;13.85;49.64;100945.94;5564861;32;34357;-85
2023/04/28 06:58:22;;;;;;;11.82;8.73;;;;;;;13.91;48.90;100939.41;5564944;32;34654;-84
2023/04/28 07:01:29;;;;;;;14.02;9.30;;;;;;;13.90;46.64;100943.03;5560716;32;35035;-84
2023/04/28 07:04:33;;;;;;;11.05;7.65;;;;;;;14.40;46.97;100943.81;5568143;32;34988;-85
2023/04/28 07:07:40;;;;;;;13.98;7.62;;;;;;;14.89;46.33;100936.62;5562165;32;34379;-84
2023/04/28 07:10:45;;;;;;;12.73;7.95;;;;;;;15.73;45.62;100935.09;5570031;32;34165;-83
2023/04/28 07:13:53;;;;;;;10.05;7.45;;;;;;;15.38;44.33;100927.44;5570658;32;33920;-83
2023/04/28 07:16:59;;;;;;;10.63;7.85;;;;;;;15.25;44.99;100930.03;5564899;32;35195;-84
2023/04/28 07:20:05;;;;;;;16.62;8.57;;;;;;;14.23;46.08;100921.63;5564710;32;34070;-84
2023/04/28 07:23:10;;;;;;;16.00;8.38;;;;;;;14.71;46.35;100926.03;5557560;32;34668;-85
2023/04/28 07:26:17;;;;;;;23.17;8.40;;;;;;;15.14;45.86;100917.31;5565989;32;33748;-83
2023/04/28 07:29:22;;;;;;;17.65;8.60;;;;;;;15.80;44.36;100916.88;5562575;32;34828;-84
2023/04/28 07:32:29;;;;;;;14.93;8.57;;;;;;;15.97;44.41;100922.97;5552056;32;33819;-85
2023/04/28 07:35:34;;;;;;;11.50;8.32;;;;;;;15.97;43.02;100922.97;5553312;32;32673;-89
2023/04/28 07:38:40;;;;;;;16.27;9.05;;;;;;;16.21;41.41;100909.84;5554211;32;33804;-90
2023/04/28 07:41:44;;;;;;;12.93;8.88;;;;;;;16.39;40.44;100923.84;5555739;32;33690;-87
2023/04/28 07:44:49;;;;;;;14.68;9.07;;;;;;;16.04;42.00;100918.94;5569521;32;34318;-85
2023/04/28 07:47:54;;;;;;;17.15;9.10;;;;;;;15.42;41.51;100918.31;5549811;32;33814;-87
2023/04/28 07:50:59;;;;;;;15.73;9.55;;;;;;;15.69;41.27;100922.03;5552996;32;33515;-86
2023/04/28 07:54:04;;;;;;;11.85;8.60;;;;;;;15.77;40.48;100909.91;5554665;32;34005;-86
2023/04/28 07:57:12;;;;;;;13.02;8.80;;;;;;;15.72;41.39;100911.13;5556839;32;33988;-86
2023/04/28 08:00:18;;;;;;;14.43;8.73;;;;;;;16.22;40.05;100898.19;5549443;32;32344;-85
2023/04/28 08:03:23;;;;;;;19.10;9.02;;;;;;;15.86;40.20;100896.88;5552208;32;33906;-84
2023/04/28 08:06:27;;;;;;;14.00;8.60;;;;;;;15.90;40.45;100893.06;5553659;32;33906;-85
2023/04/28 08:09:31;;;;;;;20.27;8.90;;;;;;;16.45;45.09;100890.44;5571434;32;33592;-84
2023/04/28 08:12:37;;;;;;;12.63;8.00;;;;;;;16.11;37.35;100884.63;5561152;32;34261;-83
2023/04/28 08:15:42;;;;;;;13.02;8.50;;;;;;;17.30;37.02;100878.47;5558165;32;33991;-84
2023/04/28 08:18:47;;;;;;;17.60;8.43;;;;;;;16.77;34.84;100883.88;5550595;32;34022;-84
2023/04/28 08:21:54;;;;;;;12.00;7.62;;;;;;;16.93;35.03;100881.88;5557189;32;35104;-84
2023/04/28 08:25:01;;;;;;;13.20;7.65;;;;;;;17.21;35.28;100866.56;5563245;32;34031;-84
2023/04/28 08:28:07;;;;;;;12.30;7.80;;;;;;;17.45;35.44;100865.81;5551257;32;32830;-83
2023/04/28 08:31:14;;;;;;;11.00;6.75;;;;;;;17.99;34.83;100861.06;5554508;32;33974;-83
2023/04/28 08:34:19;;;;;;;9.35;7.03;;;;;;;18.12;33.00;100860.19;5565716;32;33848;-83
2023/04/28 08:37:23;;;;;;;8.45;6.00;;;;;;;18.42;31.62;100851.66;5566533;32;34256;-84
2023/04/28 08:40:36;;;;;;;16.52;6.45;;;;;;;18.07;31.48;100852.50;5551684;32;33508;-83
2023/04/28 08:43:42;;;;;;;12.68;6.53;;;;;;;18.22;32.03;100846.94;5556189;32;33877;-83
2023/04/28 08:46:48;;;;;;;9.23;6.30;;;;;;;18.80;31.34;100841.66;5560973;32;34140;-84
2023/04/28 08:50:04;;;;;;;13.27;6.85;;;;;;;19.38;30.26;100842.59;5553252;32;34312;-83
2023/04/28 08:53:12;;;;;;;11.40;6.05;;;;;;;20.15;29.04;100840.91;5551679;32;33413;-82
2023/04/28 08:56:21;;;;;;;11.12;6.45;;;;;;;20.27;28.95;100836.31;5553398;32;33765;-87
2023/04/28 08:59:26;;;;;;;8.00;5.78;;;;;;;20.72;28.21;100829.84;5561595;32;34021;-84
2023/04/28 09:02:32;;;;;;;7.78;5.22;;;;;;;20.50;26.59;100833.53;5552426;31;34489;-85
2023/04/28 09:05:39;;;;;;;8.40;4.85;;;;;;;20.55;26.20;100838.53;5556155;32;32625;-84
2023/04/28 09:08:46;;;;;;;6.10;4.30;;;;;;;20.59;26.80;100840.84;5550626;32;34104;-86
2023/04/28 09:11:55;;;;;;;12.40;5.85;;;;;;;20.84;27.38;100840.56;5549148;32;34602;-85
2023/04/28 09:15:08;;;;;;;10.60;5.20;;;;;;;20.99;26.57;100831.19;5548618;32;33846;-86
2023/04/28 09:18:14;;;;;;;8.80;4.32;;;;;;;21.11;26.77;100831.94;5550526;32;34640;-84
2023/04/28 09:21:19;;;;;;;9.07;4.90;;;;;;;21.40;26.75;100824.97;5565608;32;33950;-84
2023/04/28 09:24:26;;;;;;;10.15;4.93;;;;;;;22.05;25.63;100827.28;5570414;32;33872;-85
2023/04/28 09:27:34;;;;;;;7.50;4.55;;;;;;;21.49;26.06;100832.25;5580868;32;33731;-84
2023/04/28 09:30:41;;;;;;;8.40;4.90;;;;;;;21.59;26.63;100831.44;5578447;32;34699;-85
2023/04/28 09:33:57;;;;;;;7.43;4.50;;;;;;;20.73;26.71;100828.84;5557832;32;34572;-85
2023/04/28 09:37:16;;;;;;;11.07;5.15;;;;;;;20.79;26.29;100826.63;5565257;32;33992;-85
2023/04/28 09:40:25;;;;;;;9.07;5.05;;;;;;;21.23;26.51;100827.31;5569999;32;34000;-84
2023/04/28 09:43:34;;;;;;;8.80;5.20;;;;;;;20.84;26.50;100827.09;5572340;32;33779;-84
2023/04/28 09:46:40;;;;;;;10.27;5.18;;;;;;;21.31;26.56;100815.84;5572208;32;34730;-85
2023/04/28 09:49:55;;;;;;;8.23;4.72;;;;;;;21.10;26.15;100805.09;5572983;32;33627;-85
2023/04/28 09:53:02;;;;;;;10.85;5.10;;;;;;;19.76;28.72;100800.97;5573073;32;34090;-85
2023/04/28 09:56:07;;;;;;;7.85;4.45;;;;;;;20.01;27.83;100798.12;5571464;32;34406;-89
2023/04/28 09:59:13;;;;;;;6.80;4.30;;;;;;;19.05;27.76;100801.28;5565719;32;33949;-89
2023/04/28 10:02:24;;;;;;;10.20;4.72;;;;;;;19.96;27.83;100797.66;5573613;32;33701;-86
2023/04/28 10:05:49;;;;;;;9.38;5.00;;;;;;;20.99;26.61;100792.56;5569846;32;34134;-86
2023/04/28 10:08:57;;;;;;;5.15;4.22;;;;;;;21.09;26.57;100795.31;5566872;32;33902;-87
2023/04/28 10:12:04;;;;;;;7.72;4.47;;;;;;;21.38;26.53;100787.31;5564267;32;33750;-86
2023/04/28 10:15:09;;;;;;;6.05;4.30;;;;;;;20.45;26.50;100789.94;5555538;32;34035;-87
2023/04/28 10:18:14;;;;;;;8.90;3.90;;;;;;;20.82;26.30;100785.94;5556688;32;33576;-87
2023/04/28 10:21:21;;;;;;;8.90;4.35;;;;;;;21.19;25.57;100777.34;5562226;32;34314;-86
2023/04/28 10:24:32;;;;;;;8.48;4.68;;;;;;;21.76;24.76;100773.22;5556819;32;34494;-86
2023/04/28 10:27:41;;;;;;;9.55;4.62;;;;;;;22.19;24.57;100760.31;5560717;32;34803;-86
2023/04/28 10:31:11;;;;;;;7.65;4.22;;;;;;;22.20;23.70;100762.87;5557190;32;34469;-85
2023/04/28 10:34:23;;;;;;;7.45;4.20;;;;;;;23.52;24.50;100752.22;5563526;32;33660;-85
2023/04/28 10:38:04;;;;;;;6.93;3.95;;;;;;;25.18;22.62;100739.09;5557574;32;34052;-85
2023/04/28 10:41:33;;;;;;;10.18;4.37;;;;;;;26.39;21.31;100743.38;5560514;32;34439;-86
2023/04/28 10:44:41;;;;;;;8.73;4.43;;;;;;;26.06;20.77;100742.34;5558856;32;33792;-84
2023/04/28 10:48:05;;;;;;;10.38;4.40;;;;;;;23.46;22.16;100728.47;5564025;32;34249;-85
2023/04/28 10:51:14;;;;;;;8.73;4.65;;;;;;;22.69;22.88;100729.53;5550977;32;34861;-85
2023/04/28 10:54:20;;;;;;;7.32;4.57;;;;;;;21.04;25.54;100716.66;5549476;32;33775;-87
2023/04/28 10:57:25;;;;;;;11.70;4.78;;;;;;;20.55;25.79;100714.56;5548075;32;33861;-86
2023/04/28 11:00:29;;;;;;;9.93;5.53;;;;;;;19.64;27.46;100713.16;5551069;32;34675;-86
2023/04/28 11:07:10;;;;;;;6.75;4.25;;;;;;;19.57;27.39;100702.06;5556772;32;34544;-86
2023/04/28 11:10:15;;;;;;;4.70;3.95;;;;;;;20.24;27.36;100698.34;5558723;32;33790;-85
2023/04/28 11:13:33;;;;;;;8.38;4.72;;;;;;;19.93;28.70;100691.88;5557898;32;33171;-86
2023/04/28 11:16:54;;;;;;;7.62;4.40;;;;;;;19.66;28.41;100687.84;5560265;32;34370;-88
2023/04/28 11:19:58;;;;;;;6.07;4.30;;;;;;;20.04;28.21;100687.44;5550105;32;34003;-87
2023/04/28 11:23:03;;;;;;;4.45;3.80;;;;;;;19.41;28.43;100686.31;5557901;32;33880;-87
2023/04/28 11:26:08;;;;;;;5.90;3.60;;;;;;;19.97;28.48;100692.53;5554256;32;33756;-86
2023/04/28 11:29:14;;;;;;;6.12;4.00;;;;;;;19.53;28.43;100682.62;5557477;32;34245;-87
2023/04/28 11:32:32;;;;;;;7.65;4.55;;;;;;;19.19;30.18;100674.66;5557848;32;33796;-86
2023/04/28 11:35:41;;;;;;;5.23;3.90;;;;;;;19.17;29.29;100681.13;5561351;31;34098;-86
2023/04/28 11:38:45;;;;;;;7.32;3.97;;;;;;;19.08;29.64;100677.34;5566085;32;33931;-86
2023/04/28 11:41:51;;;;;;;6.30;3.92;;;;;;;18.64;30.21;100664.66;5557782;32;34919;-88
2023/04/28 11:44:55;;;;;;;6.18;3.72;;;;;;;17.98;31.38;100687.59;5553239;32;33433;-88
2023/04/28 11:48:04;;;;;;;6.18;4.28;;;;;;;17.38;31.82;100684.87;5553377;32;33618;-85
2023/04/28 11:51:26;;;;;;;10.97;4.23;;;;;;;17.02;33.44;100684.78;5555202;32;33949;-85
2023/04/28 11:54:31;;;;;;;5.77;4.10;;;;;;;17.44;33.02;100678.22;5570194;32;34058;-85
2023/04/28 11:57:35;;;;;;;6.85;4.40;;;;;;;16.95;33.44;100670.09;5563332;32;34687;-85
2023/04/28 12:00:41;;;;;;;8.32;4.10;;;;;;;16.83;33.85;100658.41;5563540;32;34603;-85
2023/04/28 12:03:46;;;;;;;10.88;5.05;;;;;;;17.23;33.17;100660.91;5558518;32;34285;-85
2023/04/28 12:06:58;;;;;;;8.55;4.18;;;;;;;17.15;33.72;100660.59;5565890;31;34173;-86
2023/04/28 12:10:10;;;;;;;7.72;4.07;;;;;;;17.48;33.08;100656.41;5556782;32;33602;-86
2023/04/28 12:13:16;;;;;;;10.10;4.18;;;;;;;17.31;33.75;100655.00;5554549;32;34296;-87
2023/04/28 12:16:37;;;;;;;8.18;3.92;;;;;;;17.60;33.93;100654.63;5552895;32;34492;-86
2023/04/28 12:19:44;;;;;;;6.82;4.40;;;;;;;17.61;33.74;100644.78;5549299;32;34066;-90
2023/04/28 12:22:49;;;;;;;9.80;4.00;;;;;;;16.80;34.50;100639.91;5548188;32;34336;-86
2023/04/28 12:25:53;;;;;;;6.50;4.10;;;;;;;17.16;34.48;100629.31;5548896;32;34008;-86
2023/04/28 12:28:58;;;;;;;7.72;4.20;;;;;;;17.00;34.79;100642.94;5560836;31;33752;-86
2023/04/28 12:32:02;;;;;;;8.00;4.45;;;;;;;17.30;34.96;100633.66;5557731;31;33724;-86
2023/04/28 12:35:08;;;;;;;6.80;4.03;;;;;;;16.66;35.42;100633.72;5570287;32;34710;-85
2023/04/28 12:38:12;;;;;;;8.55;3.87;;;;;;;16.88;34.72;100631.28;5559876;32;33872;-85
2023/04/28 12:41:18;;;;;;;8.35;4.37;;;;;;;17.03;35.08;100621.31;5566142;32;33769;-86
2023/04/28 12:44:23;;;;;;;8.20;4.62;;;;;;;16.59;35.72;100620.84;5559621;32;32221;-86
2023/04/28 12:47:30;;;;;;;9.43;4.60;;;;;;;16.69;36.05;100612.03;5558111;32;34555;-88
2023/04/28 12:50:43;;;;;;;6.50;4.07;;;;;;;16.95;35.06;100595.06;5551931;32;33987;-87
2023/04/28 12:53:49;;;;;;;10.60;4.50;;;;;;;16.77;36.43;100586.53;5552980;32;33873;-87
2023/04/28 12:56:56;;;;;;;8.05;4.47;;;;;;;16.64;36.69;100576.69;5563529;32;34806;-87
2023/04/28 13:00:02;;;;;;;7.00;4.72;;;;;;;16.55;36.76;100566.66;5564458;32;34178;-87
2023/04/28 13:03:06;;;;;;;8.65;4.37;;;;;;;16.91;36.38;100561.41;5560094;32;33494;-88
2023/04/28 13:06:16;;;;;;;8.05;4.32;;;;;;;17.04;35.69;100554.19;5557257;32;34224;-87
2023/04/28 13:09:24;;;;;;;6.50;4.15;;;;;;;17.27;35.79;100537.34;5554665;32;33844;-86
2023/04/28 13:12:29;;;;;;;9.95;4.82;;;;;;;17.62;34.58;100525.78;5558757;32;34113;-87
2023/04/28 13:15:33;;;;;;;10.80;4.30;;;;;;;18.06;34.67;100536.72;5566872;32;32662;-86
2023/04/28 13:18:44;;;;;;;10.25;3.75;;;;;;;17.97;34.63;100530.22;5559453;32;33926;-87
2023/04/28 13:21:50;;;;;;;10.30;4.15;;;;;;;18.18;35.45;100534.88;5558239;32;33274;-87
2023/04/28 13:24:58;;;;;;;7.18;4.03;;;;;;;18.16;35.74;100542.22;5552298;32;34299;-87
2023/04/28 13:28:05;;;;;;;6.78;3.58;;;;;;;17.68;35.32;100538.72;5561175;32;34146;-87
2023/04/28 13:31:09;;;;;;;6.15;4.07;;;;;;;17.82;35.84;100547.50;5556146;32;36625;-87
2023/04/28 13:34:17;;;;;;;8.80;4.15;;;;;;;17.79;34.77;100540.56;5567451;32;34525;-91
2023/04/28 13:37:26;;;;;;;9.40;3.92;;;;;;;18.00;34.69;100532.66;5568949;32;33811;-91
2023/04/28 13:40:33;;;;;;;8.00;4.03;;;;;;;17.83;34.39;100541.16;5566768;32;34944;-87
2023/04/28 13:43:40;;;;;;;7.10;4.45;;;;;;;16.87;35.62;100546.53;5569275;32;33864;-87
2023/04/28 13:46:48;;;;;;;11.52;3.70;;;;;;;16.79;36.19;100533.72;5555973;32;33869;-87
2023/04/28 13:49:54;;;;;;;6.45;4.07;;;;;;;16.78;36.32;100532.84;5558565;32;34640;-87
2023/04/28 13:52:59;;;;;;;9.20;3.83;;;;;;;16.70;36.65;100516.50;5561940;32;33717;-87
2023/04/28 13:56:07;;;;;;;11.12;4.00;;;;;;;16.67;36.95;100512.22;5560081;32;34126;-87
2023/04/28 13:59:16;;;;;;;6.47;3.72;;;;;;;16.73;36.34;100510.91;5559277;32;34406;-87
2023/04/28 14:02:26;;;;;;;6.00;3.78;;;;;;;16.90;37.51;100495.41;5555244;32;33933;-87
2023/04/28 14:05:34;;;;;;;9.10;3.90;;;;;;;17.19;35.74;100490.56;5560997;32;34517;-87
2023/04/28 14:08:52;;;;;;;4.73;3.60;;;;;;;16.72;36.19;100482.41;5560643;32;32460;-86
2023/04/28 14:12:01;;;;;;;10.27;4.12;;;;;;;16.67;36.77;100484.56;5564474;32;34490;-86
2023/04/28 14:15:08;;;;;;;5.95;4.10;;;;;;;16.78;36.33;100476.59;5555140;32;35820;-86
2023/04/28 14:18:14;;;;;;;7.20;3.87;;;;;;;16.90;36.77;100473.97;5548961;32;33903;-87
2023/04/28 14:21:27;;;;;;;8.73;3.70;;;;;;;16.77;37.41;100474.03;5552091;32;32651;-86
2023/04/28 14:24:35;;;;;;;11.02;4.07;;;;;;;17.10;36.60;100483.22;5556039;32;33961;-86
2023/04/28 14:27:43;;;;;;;7.43;3.80;;;;;;;16.59;37.37;100487.81;5555407;32;34422;-87
2023/04/28 14:30:53;;;;;;;5.25;3.67;;;;;;;16.63;37.58;100486.62;5567435;32;33877;-87
2023/04/28 14:33:58;;;;;;;6.80;3.53;;;;;;;16.56;37.26;100480.84;5558453;32;34029;-86
2023/04/28 14:37:05;;;;;;;4.90;3.50;;;;;;;16.65;37.26;100473.12;5558640;32;33633;-91
2023/04/28 14:40:11;;;;;;;8.98;3.85;;;;;;;16.51;37.53;100477.69;5565198;32;34609;-91
2023/04/28 14:43:21;;;;;;;7.05;3.55;;;;;;;16.44;37.87;100471.91;5563631;32;33567;-88
2023/04/28 14:46:28;;;;;;;7.43;3.75;;;;;;;16.49;37.94;100471.56;5565317;32;33642;-88
2023/04/28 14:49:35;;;;;;;6.45;4.12;;;;;;;16.20;38.42;100463.84;5572002;32;34014;-88
2023/04/28 14:52:42;;;;;;;8.48;3.70;;;;;;;16.38;38.95;100466.12;5569428;32;34192;-88
2023/04/28 14:55:52;;;;;;;8.63;3.85;;;;;;;16.40;39.38;100467.72;5565522;32;34144;-87
2023/04/28 14:59:10;;;;;;;9.02;3.65;;;;;;;16.47;40.03;100461.94;5549582;32;34380;-87
2023/04/28 15:02:20;;;;;;;8.50;4.03;;;;;;;16.58;39.29;100451.28;5554724;32;34013;-87
2023/04/28 15:05:28;;;;;;;7.95;4.03;;;;;;;16.55;38.98;100451.53;5550947;32;33943;-87
2023/04/28 15:08:34;;;;;;;7.32;4.53;;;;;;;16.36;39.21;100444.84;5554506;32;34204;-87
2023/04/28 15:11:39;;;;;;;16.27;4.25;;;;;;;16.39;39.14;100447.28;5553375;32;33948;-87
2023/04/28 15:14:47;;;;;;;6.40;4.00;;;;;;;16.34;39.67;100440.56;5552121;32;33892;-88
2023/04/28 15:17:59;;;;;;;5.35;3.80;;;;;;;16.20;40.48;100446.94;5551728;32;34010;-87
2023/04/28 15:21:06;;;;;;;8.27;4.00;;;;;;;16.26;40.54;100436.66;5548209;32;33621;-87
